Time;durP1;ratioP1;P1;durP2;ratioP2;P2;SDS_P1;SDS_P2;PMS_P1;PMS_P2;Temp;Humidity;BMP_temperature;BMP_pressure;BME280_temperature;BME280_humidity;BME280_pressure;Samples;Min_cycle;Max_cycle;Signal;HPM_P1;HPM_P2
2021/12/04 00:03:56;;;;;;;;;;;;;;;2.15;100.00;94216.25;10447060;28;19913;-77
2021/12/04 00:09:03;;;;;;;;;;;;;;;2.20;100.00;94209.22;10446551;28;19912;-77
2021/12/04 00:14:05;;;;;;;;;;;;;;;2.56;100.00;94204.63;10448772;28;19921;-79
2021/12/04 00:19:05;;;;;;;;;;;;;;;2.44;100.00;94211.00;10448336;28;19916;-77
2021/12/04 00:24:05;;;;;;;;;;;;;;;2.42;100.00;94203.28;10446210;28;20298;-77
2021/12/04 00:29:06;;;;;;;;;;;;;;;2.21;100.00;94208.19;10446183;28;19994;-75
2021/12/04 00:34:06;;;;;;;;;;;;;;;2.08;100.00;94208.44;10406265;28;20020;-77
2021/12/04 00:49:45;;;;;;;;;;;;;;;2.39;100.00;94209.06;10445020;28;19917;-81
2021/12/04 00:54:46;;;;;;;;;;;;;;;2.60;100.00;94220.88;10424762;28;19913;-81
2021/12/04 00:59:46;;;;;;;;;;;;;;;2.83;100.00;94204.06;10406264;28;19917;-75
2021/12/04 01:04:47;;;;;;;;;;;;;;;2.95;100.00;94195.25;10411278;28;19913;-75
2021/12/04 01:09:47;;;;;;;;;;;;;;;2.87;100.00;94183.16;10408907;28;19917;-75
2021/12/04 01:14:48;;;;;;;;;;;;;;;2.91;100.00;94169.16;10405573;28;19920;-79
2021/12/04 01:19:48;;;;;;;;;;;;;;;2.80;100.00;94155.97;10404810;28;19939;-78
2021/12/04 01:24:48;;;;;;;;;;;;;;;2.30;100.00;94154.78;10405135;28;19917;-77
2021/12/04 01:29:48;;;;;;;;;;;;;;;1.93;100.00;94152.47;10405954;28;19927;-83
2021/12/04 01:34:49;;;;;;;;;;;;;;;1.84;100.00;94146.72;10405294;28;19957;-79
2021/12/04 01:39:49;;;;;;;;;;;;;;;1.72;100.00;94152.03;10404680;28;19921;-79
2021/12/04 01:44:50;;;;;;;;;;;;;;;1.63;100.00;94158.72;10419505;28;19936;-72
2021/12/04 01:49:52;;;;;;;;;;;;;;;1.84;100.00;94157.31;10406909;28;19917;-76
2021/12/04 01:54:52;;;;;;;;;;;;;;;1.59;100.00;94154.91;10408015;28;20362;-76
2021/12/04 01:59:52;;;;;;;;;;;;;;;1.67;100.00;94160.66;10405559;28;19924;-77
2021/12/04 02:04:53;;;;;;;;;;;;;;;1.78;100.00;94166.19;10405351;28;19917;-80
2021/12/04 02:09:53;;;;;;;;;;;;;;;2.11;100.00;94165.56;10404872;28;19995;-77
2021/12/04 02:14:53;;;;;;;;;;;;;;;1.96;100.00;94159.94;10403623;28;19913;-74
2021/12/04 02:19:54;;;;;;;;;;;;;;;1.80;100.00;94167.59;10408537;28;19924;-75
2021/12/04 02:24:54;;;;;;;;;;;;;;;1.78;100.00;94151.09;10413102;28;19917;-76
2021/12/04 02:29:54;;;;;;;;;;;;;;;1.96;100.00;94149.34;10410947;28;19921;-78
2021/12/04 02:34:56;;;;;;;;;;;;;;;2.00;100.00;94164.53;10414196;28;19917;-79
2021/12/04 02:40:00;;;;;;;;;;;;;;;1.94;100.00;94160.19;10412738;28;19952;-79
2021/12/04 02:45:04;;;;;;;;;;;;;;;1.93;100.00;94155.13;10412076;28;19925;-83
2021/12/04 02:50:07;;;;;;;;;;;;;;;2.16;100.00;94152.41;10395236;28;19917;-81
2021/12/04 02:55:08;;;;;;;;;;;;;;;2.42;100.00;94160.84;10411933;28;19952;-72
2021/12/04 03:00:10;;;;;;;;;;;;;;;2.48;100.00;94136.03;10410216;28;20377;-76
2021/12/04 03:05:12;;;;;;;;;;;;;;;2.56;100.00;94132.19;10409751;28;20387;-75
2021/12/04 03:10:12;;;;;;;;;;;;;;;2.59;100.00;94125.63;10411516;28;19995;-75
2021/12/04 03:15:12;;;;;;;;;;;;;;;2.76;100.00;94123.78;10410745;28;20011;-79
2021/12/04 03:20:13;;;;;;;;;;;;;;;2.71;100.00;94127.16;10410217;28;19917;-77
2021/12/04 03:25:19;;;;;;;;;;;;;;;2.79;100.00;94131.28;10409260;28;20375;-81
2021/12/04 03:30:35;;;;;;;;;;;;;;;2.80;100.00;94129.44;10407971;28;20369;-81
2021/12/04 03:40:54;;;;;;;;;;;;;;;2.79;100.00;94133.94;10412398;28;19921;-78
2021/12/04 03:46:00;;;;;;;;;;;;;;;2.73;100.00;94143.66;10409220;28;19949;-75
2021/12/04 03:51:02;;;;;;;;;;;;;;;2.77;100.00;94145.84;10408479;28;20000;-79
2021/12/04 03:56:04;;;;;;;;;;;;;;;2.65;100.00;94143.22;10407654;28;20268;-73
2021/12/04 04:01:04;;;;;;;;;;;;;;;2.51;100.00;94148.84;10407500;28;19924;-75
2021/12/04 04:06:05;;;;;;;;;;;;;;;2.33;100.00;94149.00;10407310;28;19935;-75
2021/12/04 04:11:05;;;;;;;;;;;;;;;2.04;100.00;94157.75;10407762;28;19917;-75
2021/12/04 04:16:06;;;;;;;;;;;;;;;1.89;100.00;94162.72;10408537;28;19936;-75
2021/12/04 04:21:06;;;;;;;;;;;;;;;1.48;100.00;94167.94;10407159;28;19917;-78
2021/12/04 04:26:06;;;;;;;;;;;;;;;1.51;100.00;94178.06;10406890;28;20001;-75
2021/12/04 04:31:08;;;;;;;;;;;;;;;1.32;100.00;94176.56;10407729;28;19964;-75
2021/12/04 04:36:36;;;;;;;;;;;;;;;1.20;100.00;94176.56;10407139;28;19971;-76
2021/12/04 04:57:47;;;;;;;;;;;;;;;1.25;100.00;94204.97;10408200;28;19920;-76
2021/12/04 05:13:26;;;;;;;;;;;;;;;1.23;100.00;94196.44;10407126;28;19913;-75
2021/12/04 05:23:27;;;;;;;;;;;;;;;1.27;100.00;94181.72;10407378;28;19917;-78
2021/12/04 05:28:27;;;;;;;;;;;;;;;1.29;100.00;94179.66;10387381;28;19965;-76
2021/12/04 05:33:28;;;;;;;;;;;;;;;1.34;100.00;94175.31;10405472;28;19917;-83
2021/12/04 05:38:28;;;;;;;;;;;;;;;1.42;100.00;94184.72;10405229;28;19924;-79
2021/12/04 05:43:29;;;;;;;;;;;;;;;1.47;100.00;94179.56;10405828;28;20139;-79
2021/12/04 05:48:50;;;;;;;;;;;;;;;1.58;100.00;94188.53;10404868;28;20367;-77
2021/12/04 05:54:03;;;;;;;;;;;;;;;1.56;100.00;94181.88;10407899;28;19970;-77
2021/12/04 05:59:04;;;;;;;;;;;;;;;1.47;100.00;94184.06;10413554;28;19974;-75
2021/12/04 06:04:04;;;;;;;;;;;;;;;1.39;100.00;94185.19;10422717;28;20401;-78
2021/12/04 06:09:05;;;;;;;;;;;;;;;1.27;100.00;94189.66;10412526;28;20398;-73
2021/12/04 06:14:06;;;;;;;;;;;;;;;1.21;100.00;94211.75;10411338;28;19920;-75
2021/12/04 06:19:24;;;;;;;;;;;;;;;1.16;100.00;94215.09;10420769;28;19917;-75
2021/12/04 06:24:24;;;;;;;;;;;;;;;1.25;100.00;94220.88;10434863;28;20404;-74
2021/12/04 06:29:24;;;;;;;;;;;;;;;1.09;100.00;94217.84;10449749;28;19955;-74
2021/12/04 06:34:25;;;;;;;;;;;;;;;1.52;100.00;94218.59;10450499;28;19921;-72
2021/12/04 06:39:25;;;;;;;;;;;;;;;1.90;100.00;94233.22;10420415;28;19917;-77
2021/12/04 06:44:26;;;;;;;;;;;;;;;1.98;100.00;94234.72;10415350;28;20006;-76
2021/12/04 06:49:34;;;;;;;;;;;;;;;1.84;100.00;94234.97;10450102;28;19916;-78
2021/12/04 06:54:38;;;;;;;;;;;;;;;1.94;100.00;94228.25;10455567;28;20378;-78
2021/12/04 06:59:40;;;;;;;;;;;;;;;1.80;100.00;94233.81;10458334;28;19983;-75
2021/12/04 07:04:40;;;;;;;;;;;;;;;1.74;100.00;94221.47;10441084;28;19921;-78
2021/12/04 07:09:41;;;;;;;;;;;;;;;2.13;100.00;94224.44;10436781;28;19917;-79
2021/12/04 07:14:42;;;;;;;;;;;;;;;2.39;100.00;94241.69;10426618;28;19935;-77
2021/12/04 07:19:42;;;;;;;;;;;;;;;2.53;100.00;94255.50;10424395;28;20040;-76
2021/12/04 07:24:42;;;;;;;;;;;;;;;2.63;100.00;94259.41;10424717;28;19967;-75
2021/12/04 07:29:43;;;;;;;;;;;;;;;2.90;100.00;94252.50;10447614;28;20040;-80
2021/12/04 07:34:43;;;;;;;;;;;;;;;2.55;100.00;94247.31;10443901;28;20312;-78
2021/12/04 07:39:43;;;;;;;;;;;;;;;2.28;100.00;94239.06;10446464;28;19920;-76
2021/12/04 07:44:45;;;;;;;;;;;;;;;2.73;100.00;94230.41;10450220;28;19944;-80
2021/12/04 07:49:45;;;;;;;;;;;;;;;3.58;100.00;94211.94;10448488;28;20003;-78
2021/12/04 07:54:48;;;;;;;;;;;;;;;4.15;100.00;94189.63;10445504;28;19917;-77
2021/12/04 07:59:48;;;;;;;;;;;;;;;4.78;100.00;94187.44;10431758;28;19917;-76
2021/12/04 08:04:48;;;;;;;;;;;;;;;4.97;100.00;94182.56;10429718;28;19917;-75
2021/12/04 08:09:49;;;;;;;;;;;;;;;4.62;100.00;94167.84;10444603;28;19924;-74
2021/12/04 08:14:51;;;;;;;;;;;;;;;3.98;100.00;94165.75;10433969;28;19917;-77
2021/12/04 08:19:51;;;;;;;;;;;;;;;4.01;100.00;94165.25;10420559;28;20318;-74
2021/12/04 08:24:51;;;;;;;;;;;;;;;4.30;100.00;94172.25;10445821;28;19919;-76
2021/12/04 08:29:52;;;;;;;;;;;;;;;4.26;100.00;94180.72;10445991;28;20453;-75
2021/12/04 08:34:52;;;;;;;;;;;;;;;3.80;100.00;94185.44;10445139;28;20070;-75
2021/12/04 08:39:52;;;;;;;;;;;;;;;3.76;100.00;94184.31;10437454;28;19921;-73
2021/12/04 08:44:53;;;;;;;;;;;;;;;3.51;100.00;94172.25;10427369;28;19928;-78
2021/12/04 08:49:53;;;;;;;;;;;;;;;3.82;100.00;94162.06;10440966;28;19916;-75
2021/12/04 08:54:53;;;;;;;;;;;;;;;4.22;100.00;94150.34;10444720;28;19967;-75
2021/12/04 08:59:54;;;;;;;;;;;;;;;4.75;100.00;94153.34;10444841;28;20306;-76
2021/12/04 09:04:57;;;;;;;;;;;;;;;5.24;100.00;94141.78;10443636;28;19928;-76
2021/12/04 09:09:58;;;;;;;;;;;;;;;5.64;100.00;94158.34;10442912;28;19916;-75
2021/12/04 09:14:58;;;;;;;;;;;;;;;5.81;100.00;94158.19;10432135;28;19917;-75
2021/12/04 09:19:58;;;;;;;;;;;;;;;5.78;100.00;94143.50;10430983;28;20357;-77
2021/12/04 09:25:00;;;;;;;;;;;;;;;5.76;100.00;94142.16;10442128;28;20020;-73
2021/12/04 09:30:17;;;;;;;;;;;;;;;5.83;100.00;94153.41;10447018;28;19933;-76
2021/12/04 10:01:40;;;;;;;;;;;;;;;5.90;100.00;94154.00;10452442;28;19917;-75
2021/12/04 10:22:37;;;;;;;;;;;;;;;5.46;100.00;94149.69;10439132;28;19925;-77
2021/12/04 10:33:06;;;;;;;;;;;;;;;5.67;100.00;94133.84;10410483;28;20027;-73
2021/12/04 10:38:11;;;;;;;;;;;;;;;5.69;100.00;94114.94;10409908;28;19924;-75
2021/12/04 10:43:17;;;;;;;;;;;;;;;5.10;100.00;94122.75;10408300;28;19913;-76
2021/12/04 10:48:20;;;;;;;;;;;;;;;5.20;100.00;94122.03;10408258;28;19944;-75
2021/12/04 10:53:25;;;;;;;;;;;;;;;5.30;100.00;94131.97;10407537;28;20322;-78
2021/12/04 11:35:00;;;;;;;;;;;;;;;5.68;100.00;94115.97;10448997;28;19924;-76
2021/12/04 11:40:49;;;;;;;;;;;;;;;5.85;100.00;94108.63;10448395;28;19921;-74
2021/12/04 11:50:52;;;;;;;;;;;;;;;5.91;100.00;94104.13;10447760;28;19913;-77
2021/12/04 11:55:53;;;;;;;;;;;;;;;6.02;100.00;94105.81;10445437;28;19917;-74
2021/12/04 12:01:00;;;;;;;;;;;;;;;5.57;100.00;94118.59;10446386;28;19917;-74
2021/12/04 12:06:03;;;;;;;;;;;;;;;5.80;100.00;94121.91;10445548;28;19913;-78
2021/12/04 12:11:05;;;;;;;;;;;;;;;5.92;100.00;94114.53;10445398;28;20367;-76
2021/12/04 12:16:09;;;;;;;;;;;;;;;5.95;100.00;94107.88;10445686;28;19962;-75
2021/12/04 12:21:11;;;;;;;;;;;;;;;5.81;100.00;94103.00;10445752;28;20038;-78
2021/12/04 12:26:29;;;;;;;;;;;;;;;5.84;100.00;94104.34;10447714;28;19925;-76
2021/12/04 12:36:49;;;;;;;;;;;;;;;5.89;100.00;94122.22;10470996;28;19917;-78
2021/12/04 12:41:50;;;;;;;;;;;;;;;5.88;100.00;94117.97;10459170;28;19995;-75
2021/12/04 12:46:59;;;;;;;;;;;;;;;5.49;100.00;94113.72;10446052;28;20003;-76
2021/12/04 12:52:03;;;;;;;;;;;;;;;5.46;100.00;94109.72;10445811;28;19913;-74
2021/12/04 12:57:18;;;;;;;;;;;;;;;5.51;100.00;94105.47;10444458;28;20399;-74
2021/12/04 13:12:57;;;;;;;;;;;;;;;5.16;100.00;94134.25;10444067;28;19913;-74
2021/12/04 13:18:08;;;;;;;;;;;;;;;4.94;100.00;94137.03;10405747;28;19913;-75
2021/12/04 13:23:09;;;;;;;;;;;;;;;4.73;100.00;94131.50;10403431;28;19920;-75
2021/12/04 13:33:16;;;;;;;;;;;;;;;4.95;100.00;94128.78;10405150;28;19920;-79
2021/12/04 13:38:20;;;;;;;;;;;;;;;4.89;100.00;94128.97;10402620;28;19943;-76
2021/12/04 13:43:22;;;;;;;;;;;;;;;4.57;100.00;94125.19;10402636;28;19921;-74
2021/12/04 13:48:24;;;;;;;;;;;;;;;4.68;100.00;94114.69;10403640;28;19913;-78
2021/12/04 13:53:26;;;;;;;;;;;;;;;4.57;100.00;94119.88;10402132;28;19920;-76
2021/12/04 13:58:27;;;;;;;;;;;;;;;4.51;100.00;94117.41;10403258;28;20296;-79
2021/12/04 14:03:29;;;;;;;;;;;;;;;4.75;100.00;94120.59;10402193;28;19917;-75
2021/12/04 14:08:29;;;;;;;;;;;;;;;4.62;100.00;94114.63;10402298;28;19913;-74
2021/12/04 14:13:29;;;;;;;;;;;;;;;4.64;100.00;94111.69;10397845;28;19917;-74
2021/12/04 14:18:30;;;;;;;;;;;;;;;4.76;100.00;94107.03;10450891;28;19917;-80
2021/12/04 14:23:32;;;;;;;;;;;;;;;4.78;100.00;94096.13;10451379;28;20028;-76
2021/12/04 14:28:38;;;;;;;;;;;;;;;4.70;100.00;94102.72;10450039;28;19925;-73
2021/12/04 14:33:40;;;;;;;;;;;;;;;4.61;100.00;94099.69;10450680;28;20023;-78
2021/12/04 14:38:42;;;;;;;;;;;;;;;4.67;100.00;94094.44;10448961;28;19917;-79
2021/12/04 14:43:43;;;;;;;;;;;;;;;4.61;100.00;94115.66;10449902;28;19913;-75
2021/12/04 14:48:44;;;;;;;;;;;;;;;4.41;100.00;94118.94;10450155;28;19913;-75
2021/12/04 14:53:47;;;;;;;;;;;;;;;4.54;100.00;94114.28;10451260;28;19913;-78
2021/12/04 14:58:49;;;;;;;;;;;;;;;4.71;100.00;94112.31;10450533;28;20332;-74
2021/12/04 15:03:52;;;;;;;;;;;;;;;4.68;100.00;94112.81;10448402;28;20271;-74
2021/12/04 15:09:00;;;;;;;;;;;;;;;4.60;100.00;94119.41;10449549;28;19920;-77
2021/12/04 15:14:04;;;;;;;;;;;;;;;4.64;100.00;94108.25;10431685;28;19913;-74
2021/12/04 15:19:11;;;;;;;;;;;;;;;4.66;100.00;94112.28;10407377;28;19917;-75
2021/12/04 15:24:13;;;;;;;;;;;;;;;4.79;100.00;94108.38;10407208;28;19917;-75
2021/12/04 15:29:15;;;;;;;;;;;;;;;4.64;100.00;94113.56;10405719;28;20134;-79
2021/12/04 15:34:16;;;;;;;;;;;;;;;4.56;100.00;94123.63;10407478;28;19952;-77
2021/12/04 15:39:20;;;;;;;;;;;;;;;4.42;100.00;94119.72;10411328;28;20004;-77
2021/12/04 15:49:43;;;;;;;;;;;;;;;4.36;100.00;94123.38;10407111;28;20292;-76
2021/12/04 15:55:07;;;;;;;;;;;;;;;4.49;100.00;94119.53;10406541;28;19913;-75
2021/12/04 16:00:12;;;;;;;;;;;;;;;4.42;100.00;94130.34;10405217;28;19924;-80
2021/12/04 16:05:18;;;;;;;;;;;;;;;4.53;100.00;94134.72;10404694;28;20432;-75
2021/12/04 16:10:21;;;;;;;;;;;;;;;4.54;100.00;94120.38;10404494;28;19955;-77
2021/12/04 16:15:22;;;;;;;;;;;;;;;4.59;100.00;94116.97;10432917;28;19917;-76
2021/12/04 16:20:23;;;;;;;;;;;;;;;4.50;100.00;94131.78;10445200;28;20313;-73
2021/12/04 16:25:34;;;;;;;;;;;;;;;4.55;100.00;94124.66;10432946;28;19924;-74
2021/12/04 16:35:58;;;;;;;;;;;;;;;4.69;100.00;94122.41;10405670;28;20314;-72
2021/12/04 16:41:03;;;;;;;;;;;;;;;4.72;100.00;94111.25;10402589;28;20288;-76
2021/12/04 16:46:05;;;;;;;;;;;;;;;4.93;100.00;94122.88;10403346;28;19913;-77
2021/12/04 17:01:49;;;;;;;;;;;;;;;4.68;100.00;94125.31;10278461;28;20009;-77
2021/12/04 17:06:52;;;;;;;;;;;;;;;4.66;100.00;94122.91;10367291;28;20314;-77
2021/12/04 17:11:54;;;;;;;;;;;;;;;4.89;100.00;94128.97;10403796;28;19967;-78
2021/12/04 17:17:00;;;;;;;;;;;;;;;4.93;100.00;94127.41;10442903;28;19974;-77
2021/12/04 17:22:00;;;;;;;;;;;;;;;5.00;100.00;94133.34;10444624;28;19923;-74
2021/12/04 17:27:02;;;;;;;;;;;;;;;5.10;100.00;94140.63;10445413;28;19935;-74
2021/12/04 17:32:02;;;;;;;;;;;;;;;5.12;100.00;94141.16;10427185;28;19913;-76
2021/12/04 17:37:03;;;;;;;;;;;;;;;5.22;100.00;94135.94;10560906;22;19924;-74
2021/12/04 17:42:03;;;;;;;;;;;;;;;5.06;100.00;94127.00;10486906;28;19928;-74
2021/12/04 17:47:04;;;;;;;;;;;;;;;5.03;100.00;94122.19;10497111;28;19919;-79
2021/12/04 17:52:05;;;;;;;;;;;;;;;4.97;100.00;94116.00;10496747;28;20015;-75
2021/12/04 17:57:05;;;;;;;;;;;;;;;4.99;100.00;94121.06;10452899;28;20453;-75
2021/12/04 18:02:08;;;;;;;;;;;;;;;4.86;100.00;94111.66;10460518;28;19917;-76
2021/12/04 18:07:11;;;;;;;;;;;;;;;4.80;100.00;94112.66;10454253;28;19917;-76
2021/12/04 18:12:17;;;;;;;;;;;;;;;4.68;100.00;94114.69;10449132;28;19912;-75
2021/12/04 18:17:17;;;;;;;;;;;;;;;4.81;100.00;94110.81;10489573;28;20041;-73
2021/12/04 18:22:18;;;;;;;;;;;;;;;4.62;100.00;94119.16;10488468;28;20042;-73
2021/12/04 18:27:18;;;;;;;;;;;;;;;4.68;100.00;94125.31;10468549;28;19912;-79
2021/12/04 18:32:19;;;;;;;;;;;;;;;4.85;100.00;94119.88;10446663;28;19916;-74
2021/12/04 18:37:19;;;;;;;;;;;;;;;4.74;100.00;94117.13;10446668;28;20389;-76
2021/12/04 18:42:19;;;;;;;;;;;;;;;4.69;100.00;94110.94;10445870;28;19960;-74
2021/12/04 18:47:20;;;;;;;;;;;;;;;4.76;100.00;94111.56;10446187;28;20429;-78
2021/12/04 18:52:20;;;;;;;;;;;;;;;4.86;100.00;94105.53;10445573;28;19917;-74
2021/12/04 18:57:20;;;;;;;;;;;;;;;4.89;100.00;94100.47;10445717;28;19956;-75
2021/12/04 19:02:23;;;;;;;;;;;;;;;4.96;100.00;94105.59;10451492;28;20383;-77
2021/12/04 19:07:24;;;;;;;;;;;;;;;4.79;100.00;94105.72;10487200;28;19969;-77
2021/12/04 19:12:26;;;;;;;;;;;;;;;4.77;100.00;94107.81;10466309;28;19912;-75
2021/12/04 19:17:26;;;;;;;;;;;;;;;4.65;100.00;94105.34;10484631;28;19924;-76
2021/12/04 19:22:27;;;;;;;;;;;;;;;4.68;100.00;94112.81;10447180;28;19921;-75
2021/12/04 19:27:27;;;;;;;;;;;;;;;4.75;100.00;94110.75;10467229;28;20378;-75
2021/12/04 19:32:30;;;;;;;;;;;;;;;4.64;100.00;94110.91;10486093;28;19928;-77
2021/12/04 19:48:28;;;;;;;;;;;;;;;4.32;100.00;94111.63;10481167;28;19916;-78
2021/12/04 19:58:39;;;;;;;;;;;;;;;4.38;100.00;94115.94;10486454;28;20311;-77
2021/12/04 20:04:03;;;;;;;;;;;;;;;4.39;100.00;94109.59;10485216;28;19923;-76
2021/12/04 20:14:25;;;;;;;;;;;;;;;4.83;100.00;94120.16;10462743;28;20286;-77
2021/12/04 20:19:25;;;;;;;;;;;;;;;4.81;100.00;94119.56;10485903;28;19931;-79
2021/12/04 20:24:32;;;;;;;;;;;;;;;4.90;100.00;94118.06;10484574;28;20335;-74
2021/12/04 21:53:24;;;;;;;;;;;;;;;4.55;100.00;94110.53;10481763;28;19913;-76
2021/12/04 22:14:23;;;;;;;;;;;;;;;4.41;100.00;94118.09;10482909;28;20307;-77
2021/12/04 22:25:55;;;;;;;;;;;;;;;4.27;100.00;94126.50;10446483;28;19913;-76
2021/12/04 23:01:52;;;;;;;;;;;;;;;3.44;100.00;94096.44;10448465;28;19917;-75
2021/12/04 23:12:20;;;;;;;;;;;;;;;3.34;100.00;94105.88;10464263;28;19913;-77
